Time;durP1;ratioP1;P1;durP2;ratioP2;P2;SDS_P1;SDS_P2;PMS_P1;PMS_P2;Temp;Humidity;BMP_temperature;BMP_pressure;BME280_temperature;BME280_humidity;BME280_pressure;Samples;Min_cycle;Max_cycle;Signal;HPM_P1;HPM_P2
2020/12/26 00:01:19;;;;;;;3.97;2.30;;;6.20;94.00;14.00;99739.00;;;;5029928;28;20649;-68
2020/12/26 00:03:45;;;;;;;4.10;2.38;;;6.20;94.00;13.70;99746.00;;;;5029772;28;20669;-67
2020/12/26 00:06:18;;;;;;;4.00;2.70;;;6.20;94.00;13.90;99751.00;;;;5029716;28;20183;-67
2020/12/26 00:08:44;;;;;;;4.38;2.95;;;6.20;94.40;13.90;99759.00;;;;5013140;28;20454;-68
2020/12/26 00:11:10;;;;;;;4.03;2.23;;;6.20;94.00;13.80;99761.00;;;;5029906;28;20270;-68
2020/12/26 00:13:36;;;;;;;4.68;2.80;;;6.20;94.00;13.70;99756.00;;;;5029007;28;20842;-68
2020/12/26 00:16:09;;;;;;;4.47;2.40;;;6.20;94.00;13.70;99756.00;;;;5029788;28;20217;-68
2020/12/26 00:18:35;;;;;;;4.63;2.95;;;6.20;94.00;13.80;99747.00;;;;5029131;28;20373;-68
2020/12/26 00:21:04;;;;;;;4.43;2.80;;;6.10;94.00;13.70;99740.00;;;;5013601;28;20361;-68
2020/12/26 00:23:34;;;;;;;4.53;2.80;;;6.10;94.00;13.80;99752.00;;;;5028812;28;20478;-67
2020/12/26 00:26:00;;;;;;;4.45;2.65;;;6.10;94.00;13.90;99754.00;;;;5028836;28;20194;-68
2020/12/26 00:28:25;;;;;;;3.70;2.50;;;6.10;94.00;14.00;99753.00;;;;5029415;28;20551;-68
2020/12/26 00:30:51;;;;;;;3.60;1.90;;;6.20;94.00;13.70;99749.00;;;;5029570;28;20214;-68
2020/12/26 00:33:17;;;;;;;4.23;2.50;;;6.10;94.00;13.60;99749.00;;;;5029373;28;20272;-67
2020/12/26 00:35:42;;;;;;;4.93;3.03;;;6.10;94.00;13.70;99757.00;;;;5030149;28;20233;-67
2020/12/26 00:38:08;;;;;;;4.93;2.67;;;6.10;93.90;13.80;99755.00;;;;5029644;28;20708;-68
2020/12/26 00:40:34;;;;;;;4.60;3.00;;;6.10;94.00;13.90;99760.00;;;;5028067;28;20278;-68
2020/12/26 00:43:00;;;;;;;4.53;2.70;;;6.10;93.90;13.80;99756.00;;;;4996876;28;20368;-68
2020/12/26 00:45:26;;;;;;;4.72;2.88;;;6.10;93.90;13.90;99765.00;;;;5012829;28;20448;-69
2020/12/26 00:47:51;;;;;;;4.57;2.83;;;6.10;93.90;13.70;99749.00;;;;5030029;28;20716;-68
2020/12/26 00:50:17;;;;;;;4.47;2.90;;;6.10;93.90;13.80;99746.00;;;;5028988;28;20214;-68
2020/12/26 00:52:43;;;;;;;3.67;2.00;;;6.10;93.90;13.60;99754.00;;;;5029143;28;20272;-68
2020/12/26 00:55:09;;;;;;;4.18;2.60;;;6.10;93.90;13.50;99766.00;;;;5011658;28;20186;-68
2020/12/26 00:57:35;;;;;;;4.43;2.30;;;6.10;93.90;13.50;99766.00;;;;5029566;28;20209;-68
2020/12/26 01:00:01;;;;;;;3.90;2.33;;;6.10;93.90;13.60;99761.00;;;;5028866;28;20573;-68
2020/12/26 01:02:26;;;;;;;3.93;2.60;;;6.10;93.90;13.60;99757.00;;;;5012433;28;20446;-67
2020/12/26 01:04:52;;;;;;;3.67;2.33;;;6.10;93.90;13.50;99760.00;;;;5012025;28;20191;-68
2020/12/26 01:07:18;;;;;;;4.30;3.00;;;6.10;93.90;13.70;99753.00;;;;5014498;28;20217;-68
2020/12/26 01:09:43;;;;;;;4.00;2.70;;;6.10;93.90;13.80;99756.00;;;;5030875;28;20508;-68
2020/12/26 01:12:09;;;;;;;3.90;2.40;;;6.10;93.90;13.50;99743.00;;;;5048975;28;20201;-68
2020/12/26 01:14:35;;;;;;;4.23;2.77;;;6.10;93.90;13.60;99760.00;;;;5011656;28;20268;-68
2020/12/26 01:17:00;;;;;;;4.37;2.67;;;6.10;94.20;13.60;99748.00;;;;5012496;28;20290;-68
2020/12/26 01:19:29;;;;;;;3.70;2.20;;;6.10;93.80;13.50;99747.00;;;;5011368;28;20191;-69
2020/12/26 01:21:54;;;;;;;4.40;2.55;;;6.10;93.80;13.40;99764.00;;;;5012269;28;20209;-68
2020/12/26 01:24:21;;;;;;;4.50;2.50;;;6.10;93.80;13.60;99761.00;;;;5012513;28;20178;-68
2020/12/26 01:26:50;;;;;;;4.18;2.60;;;6.10;93.80;13.80;99769.00;;;;4996406;28;20213;-68
2020/12/26 01:29:16;;;;;;;3.97;2.25;;;6.10;93.80;13.70;99761.00;;;;5012449;28;20551;-68
2020/12/26 01:31:43;;;;;;;4.13;2.55;;;6.10;93.80;13.40;99765.00;;;;4995930;28;20214;-68
2020/12/26 01:34:08;;;;;;;4.90;2.90;;;6.10;93.80;13.30;99750.00;;;;5031234;28;20179;-67
2020/12/26 01:36:34;;;;;;;4.60;2.70;;;6.10;93.80;13.50;99744.00;;;;5015572;28;20241;-68
2020/12/26 01:39:00;;;;;;;3.70;2.60;;;6.10;93.80;13.50;99751.00;;;;5033263;28;20423;-68
2020/12/26 01:41:25;;;;;;;3.60;2.40;;;6.10;93.80;13.60;99758.00;;;;5032299;28;20179;-68
2020/12/26 01:43:59;;;;;;;4.00;2.40;;;6.10;93.80;13.60;99761.00;;;;4999221;28;20639;-68
2020/12/26 01:46:31;;;;;;;3.88;2.03;;;6.10;93.70;13.60;99762.00;;;;5032406;28;20675;-68
2020/12/26 01:48:57;;;;;;;3.67;2.13;;;6.10;93.70;13.80;99752.00;;;;5033021;28;20240;-68
2020/12/26 01:51:24;;;;;;;3.60;1.92;;;6.10;93.70;13.70;99759.00;;;;5015685;28;20716;-68
2020/12/26 01:53:50;;;;;;;4.90;2.75;;;6.10;93.70;13.80;99758.00;;;;5000267;28;20210;-68
2020/12/26 01:56:16;;;;;;;4.72;2.65;;;6.10;93.80;13.50;99764.00;;;;4999239;28;20186;-68
2020/12/26 01:58:45;;;;;;;4.57;2.70;;;6.10;93.80;13.60;99766.00;;;;4999763;28;20183;-68
2020/12/26 02:01:11;;;;;;;4.30;2.63;;;6.10;93.70;13.60;99780.00;;;;5032249;28;20179;-68
2020/12/26 02:03:39;;;;;;;4.03;2.55;;;6.10;93.70;13.50;99778.00;;;;5015977;28;20190;-69
2020/12/26 02:06:06;;;;;;;4.47;2.60;;;6.10;93.70;13.60;99772.00;;;;5000114;28;20179;-68
2020/12/26 02:08:32;;;;;;;3.92;2.25;;;6.10;93.70;13.60;99779.00;;;;5000060;28;20206;-68
2020/12/26 02:10:57;;;;;;;4.57;2.47;;;6.10;93.70;13.80;99775.00;;;;4998472;28;20195;-68
2020/12/26 02:13:23;;;;;;;3.73;2.37;;;6.10;93.70;13.60;99772.00;;;;4999483;28;20206;-68
2020/12/26 02:16:09;;;;;;;4.27;3.00;;;6.10;93.70;13.60;99782.00;;;;5015583;28;20738;-68
2020/12/26 02:18:35;;;;;;;3.90;2.20;;;6.10;93.70;13.80;99780.00;;;;5031753;28;20719;-68
2020/12/26 02:21:02;;;;;;;4.32;2.65;;;6.10;94.10;13.80;99788.00;;;;5015475;28;20294;-68
2020/12/26 02:23:28;;;;;;;3.97;2.40;;;6.10;93.70;13.60;99788.00;;;;5015322;28;20672;-68
2020/12/26 02:25:55;;;;;;;4.57;2.50;;;6.10;93.70;13.70;99779.00;;;;5030957;28;20183;-68
2020/12/26 02:28:21;;;;;;;3.95;2.65;;;6.10;93.70;13.50;99775.00;;;;5015269;28;20218;-68
2020/12/26 02:30:46;;;;;;;4.37;2.80;;;6.10;93.70;13.60;99780.00;;;;5031848;28;20175;-68
2020/12/26 02:33:13;;;;;;;4.33;2.47;;;6.00;93.60;13.60;99788.00;;;;5031270;28;20515;-68
2020/12/26 02:35:38;;;;;;;4.50;2.90;;;6.00;93.60;13.70;99788.00;;;;4998264;28;20312;-68
2020/12/26 02:38:04;;;;;;;4.63;2.57;;;6.00;93.60;13.70;99794.00;;;;4999171;28;20677;-68
2020/12/26 02:40:30;;;;;;;4.20;2.47;;;6.00;93.60;13.80;99798.00;;;;5030399;28;20309;-68
2020/12/26 02:42:55;;;;;;;4.00;2.80;;;6.00;93.60;13.80;99798.00;;;;5033064;28;20199;-68
2020/12/26 02:45:21;;;;;;;4.47;2.73;;;6.00;93.60;13.70;99785.00;;;;5032469;28;20261;-68
2020/12/26 02:47:47;;;;;;;4.87;2.47;;;6.00;93.60;13.60;99788.00;;;;5030968;28;20198;-68
2020/12/26 02:50:12;;;;;;;4.40;2.70;;;6.00;93.60;13.80;99808.00;;;;5031443;28;20820;-68
2020/12/26 02:52:38;;;;;;;4.90;2.63;;;6.00;93.60;13.70;99806.00;;;;4998286;28;20201;-68
2020/12/26 02:55:04;;;;;;;3.90;2.27;;;6.00;93.60;13.70;99810.00;;;;5014543;28;20175;-68
2020/12/26 02:57:29;;;;;;;4.00;2.30;;;6.10;93.70;13.60;99811.00;;;;5014589;28;20214;-68
2020/12/26 02:59:55;;;;;;;4.00;2.10;;;6.00;93.60;13.50;99806.00;;;;5031084;28;20195;-68
2020/12/26 03:02:20;;;;;;;3.73;2.20;;;6.00;93.60;13.70;99806.00;;;;5030365;28;20701;-68
2020/12/26 03:04:46;;;;;;;4.33;2.47;;;6.00;93.60;13.50;99802.00;;;;5014963;28;20628;-68
2020/12/26 03:07:12;;;;;;;3.77;2.30;;;6.00;93.60;13.60;99813.00;;;;5030499;28;20195;-68
2020/12/26 03:09:37;;;;;;;4.20;2.70;;;6.00;93.60;13.80;99823.00;;;;5031340;28;20219;-68
2020/12/26 03:12:03;;;;;;;4.70;2.43;;;6.00;93.60;13.50;99819.00;;;;5030414;28;20259;-68
2020/12/26 03:14:29;;;;;;;4.93;2.80;;;6.00;94.00;13.60;99818.00;;;;5030376;28;20179;-68
2020/12/26 03:16:54;;;;;;;3.53;2.07;;;6.00;93.60;13.60;99826.00;;;;5031928;28;20576;-68
2020/12/26 03:19:20;;;;;;;4.20;2.37;;;6.00;93.60;13.50;99830.00;;;;5014554;28;20175;-68
2020/12/26 03:21:46;;;;;;;4.03;2.50;;;6.00;93.50;13.40;99831.00;;;;5030263;28;20253;-67
2020/12/26 03:24:11;;;;;;;3.90;2.50;;;6.00;93.60;13.60;99841.00;;;;5031026;28;20664;-68
2020/12/26 03:26:37;;;;;;;4.00;2.40;;;6.00;93.50;13.50;99845.00;;;;5013777;28;20301;-68
2020/12/26 03:29:03;;;;;;;3.50;2.00;;;6.00;93.50;13.70;99849.00;;;;5031165;28;20211;-68
2020/12/26 03:31:28;;;;;;;4.17;2.70;;;6.00;93.50;13.50;99841.00;;;;5013782;28;20211;-67
2020/12/26 03:33:54;;;;;;;4.07;2.20;;;6.00;93.50;13.70;99853.00;;;;5014455;28;20179;-68
2020/12/26 03:36:20;;;;;;;6.20;2.27;;;6.00;93.50;13.60;99843.00;;;;5029563;28;20245;-68
2020/12/26 03:38:45;;;;;;;4.03;2.23;;;6.00;93.50;13.60;99832.00;;;;5030995;28;20215;-68
2020/12/26 03:41:11;;;;;;;4.73;2.73;;;6.00;93.50;13.40;99839.00;;;;5013555;28;20183;-68
2020/12/26 03:43:37;;;;;;;3.80;2.13;;;6.00;93.50;13.60;99850.00;;;;5031048;28;20182;-67
2020/12/26 03:46:02;;;;;;;3.77;2.23;;;6.00;93.50;13.40;99842.00;;;;5014209;28;20179;-67
2020/12/26 03:48:28;;;;;;;3.83;2.03;;;6.00;93.50;13.40;99852.00;;;;5029843;28;20214;-68
2020/12/26 03:51:14;;;;;;;4.50;2.60;;;6.00;93.50;13.50;99855.00;;;;5013506;28;20187;-68
2020/12/26 03:53:40;;;;;;;4.38;2.50;;;6.00;93.50;13.50;99849.00;;;;5030876;28;20689;-67
2020/12/26 03:56:06;;;;;;;3.93;2.30;;;6.00;93.50;13.50;99862.00;;;;5029891;28;20282;-68
2020/12/26 03:58:32;;;;;;;4.28;2.72;;;6.00;93.50;13.60;99867.00;;;;5012094;28;20190;-67
2020/12/26 04:00:58;;;;;;;4.20;2.17;;;6.00;93.50;13.70;99864.00;;;;5013964;28;20188;-67
2020/12/26 04:03:23;;;;;;;5.20;2.30;;;6.00;93.40;13.60;99860.00;;;;5013010;28;20203;-67
2020/12/26 04:05:49;;;;;;;3.40;1.97;;;6.00;93.50;13.50;99869.00;;;;5013095;28;20341;-67
2020/12/26 04:08:15;;;;;;;4.77;2.73;;;6.00;93.50;13.60;99868.00;;;;5030814;28;20199;-67
2020/12/26 04:10:40;;;;;;;4.13;2.57;;;6.00;93.50;13.40;99867.00;;;;5013317;28;20595;-67
2020/12/26 04:13:06;;;;;;;4.53;2.37;;;6.00;93.40;13.60;99881.00;;;;5012566;28;20229;-67
2020/12/26 04:15:31;;;;;;;4.03;2.20;;;6.00;93.40;13.60;99874.00;;;;5031355;28;20314;-68
2020/12/26 04:17:57;;;;;;;3.87;2.10;;;5.90;93.40;13.60;99874.00;;;;5030056;28;20261;-67
2020/12/26 04:20:23;;;;;;;3.83;2.17;;;6.00;93.40;13.60;99880.00;;;;5013257;28;20179;-68
2020/12/26 04:22:49;;;;;;;5.10;2.43;;;5.90;93.40;13.70;99889.00;;;;5030672;28;20595;-68
2020/12/26 04:25:14;;;;;;;3.83;2.07;;;5.90;93.40;13.50;99892.00;;;;4996282;28;20193;-68
2020/12/26 04:27:40;;;;;;;4.47;2.47;;;5.90;93.40;13.50;99889.00;;;;5012862;28;20198;-67
2020/12/26 04:30:06;;;;;;;3.50;1.70;;;5.90;93.40;13.50;99885.00;;;;5030583;28;20572;-67
2020/12/26 04:32:31;;;;;;;3.20;1.70;;;6.00;93.40;13.60;99889.00;;;;5012168;28;20269;-67
2020/12/26 04:34:57;;;;;;;3.50;2.10;;;5.90;93.40;13.50;99885.00;;;;5013327;28;20186;-67
2020/12/26 04:37:23;;;;;;;3.73;2.20;;;5.90;93.40;13.50;99883.00;;;;5030647;28;20258;-67
2020/12/26 04:39:49;;;;;;;4.00;2.30;;;5.90;93.40;13.50;99893.00;;;;5012771;28;20733;-67
2020/12/26 04:42:15;;;;;;;3.63;1.95;;;5.90;93.40;13.70;99881.00;;;;5030656;28;20298;-67
2020/12/26 04:44:40;;;;;;;4.60;2.10;;;5.90;93.40;13.50;99893.00;;;;4996155;28;20756;-68
2020/12/26 04:47:10;;;;;;;4.00;2.10;;;5.90;93.40;13.50;99893.00;;;;5012472;28;20207;-67
2020/12/26 04:49:38;;;;;;;4.53;2.50;;;5.90;93.40;13.50;99890.00;;;;4996655;28;20309;-67
2020/12/26 04:52:04;;;;;;;3.78;2.13;;;5.90;93.40;13.70;99890.00;;;;5012890;28;20198;-67
2020/12/26 04:54:32;;;;;;;3.85;2.10;;;5.90;93.40;13.50;99897.00;;;;4979481;28;20179;-68
2020/12/26 04:56:58;;;;;;;4.85;2.47;;;5.90;93.30;13.40;99892.00;;;;4980039;28;20317;-68
2020/12/26 04:59:24;;;;;;;4.20;2.40;;;5.90;93.40;13.60;99893.00;;;;5028049;28;20709;-68
2020/12/26 05:01:51;;;;;;;3.88;2.10;;;5.90;93.40;13.30;99909.00;;;;4995966;28;20199;-68
2020/12/26 05:04:17;;;;;;;4.13;2.13;;;5.90;93.40;13.50;99904.00;;;;4996081;28;20539;-67
2020/12/26 05:06:50;;;;;;;3.90;2.27;;;5.90;93.40;13.50;99887.00;;;;4979883;28;20210;-67
2020/12/26 05:09:21;;;;;;;5.10;2.13;;;5.90;93.70;13.50;99899.00;;;;5011569;28;21060;-68
2020/12/26 05:11:55;;;;;;;4.15;2.50;;;5.90;93.40;13.50;99905.00;;;;5012457;28;20577;-68
2020/12/26 05:14:21;;;;;;;4.20;2.13;;;5.90;93.40;13.40;99909.00;;;;5028166;28;20233;-68
2020/12/26 05:16:47;;;;;;;4.67;2.20;;;5.90;93.30;13.60;99904.00;;;;5012686;28;20452;-68
2020/12/26 05:19:13;;;;;;;5.67;2.50;;;5.90;93.30;13.50;99913.00;;;;5028841;28;20404;-68
2020/12/26 05:21:38;;;;;;;4.00;2.23;;;5.90;93.30;13.60;99907.00;;;;4979628;28;20206;-68
2020/12/26 05:24:09;;;;;;;3.80;2.07;;;5.90;93.30;13.50;99917.00;;;;5028363;28;20482;-68
2020/12/26 05:26:43;;;;;;;4.45;2.40;;;5.90;93.30;13.60;99927.00;;;;5012420;28;20207;-68
2020/12/26 05:29:09;;;;;;;3.60;1.58;;;5.90;93.40;13.50;99917.00;;;;4995581;28;20272;-68
2020/12/26 05:31:55;;;;;;;3.60;2.05;;;5.90;93.40;13.70;99919.00;;;;5012591;28;20202;-68
2020/12/26 05:34:31;;;;;;;3.58;1.70;;;5.90;93.30;13.50;99923.00;;;;5029398;28;20191;-68
2020/12/26 05:36:59;;;;;;;3.75;1.98;;;5.90;93.30;13.60;99930.00;;;;4979713;28;20273;-68
2020/12/26 05:39:32;;;;;;;3.80;2.20;;;5.90;93.30;13.60;99927.00;;;;5012233;28;20187;-68
2020/12/26 05:41:58;;;;;;;3.97;2.30;;;5.90;93.30;13.40;99927.00;;;;5029194;28;20201;-68
2020/12/26 05:44:27;;;;;;;3.80;2.00;;;5.90;93.30;13.60;99922.00;;;;5012039;28;20179;-67
2020/12/26 05:46:56;;;;;;;5.22;2.33;;;5.90;93.30;13.40;99933.00;;;;4980778;28;20616;-68
2020/12/26 05:49:34;;;;;;;3.65;2.20;;;5.90;93.30;13.60;99947.00;;;;4995153;28;20214;-68
2020/12/26 05:52:15;;;;;;;3.53;2.20;;;5.90;93.30;13.50;99946.00;;;;4998160;28;20218;-68
2020/12/26 05:54:51;;;;;;;4.10;2.00;;;5.90;93.30;13.60;99948.00;;;;5028261;28;20190;-68
2020/12/26 05:57:17;;;;;;;3.40;1.88;;;5.90;93.30;13.40;99954.00;;;;5011318;28;20715;-68
2020/12/26 05:59:51;;;;;;;5.20;2.08;;;5.90;93.30;13.50;99944.00;;;;5028161;28;20651;-68
2020/12/26 06:02:24;;;;;;;4.18;2.25;;;5.90;93.30;13.60;99959.00;;;;4996632;28;20198;-68
2020/12/26 06:04:53;;;;;;;4.80;2.10;;;5.80;93.30;13.60;99965.00;;;;5028086;28;20543;-68
2020/12/26 06:07:23;;;;;;;4.50;2.50;;;5.90;93.30;13.60;99973.00;;;;5028634;28;20553;-68
2020/12/26 06:09:52;;;;;;;4.55;2.05;;;5.80;93.30;13.60;99967.00;;;;4995634;28;20669;-68
2020/12/26 06:12:18;;;;;;;3.70;1.95;;;5.90;93.30;13.60;99980.00;;;;5011430;28;20207;-68
2020/12/26 06:14:44;;;;;;;3.97;2.00;;;5.80;93.30;13.30;99986.00;;;;5011667;28;20253;-68
2020/12/26 06:17:10;;;;;;;3.93;2.10;;;5.80;93.30;13.50;99989.00;;;;5011177;28;20625;-68
2020/12/26 06:19:36;;;;;;;3.40;1.50;;;5.80;93.30;13.50;99993.00;;;;4978837;28;20412;-68
2020/12/26 06:22:01;;;;;;;3.80;2.13;;;5.80;93.20;13.50;100001.00;;;;4983021;28;20341;-68
2020/12/26 06:24:27;;;;;;;3.53;2.03;;;5.80;93.30;13.40;100012.00;;;;5032304;28;20182;-68
2020/12/26 06:26:53;;;;;;;3.93;1.70;;;5.80;93.20;13.50;100011.00;;;;5015394;28;20199;-68
2020/12/26 06:29:18;;;;;;;4.87;2.27;;;5.80;93.20;13.60;100007.00;;;;5014822;28;20297;-68
2020/12/26 06:31:45;;;;;;;4.20;2.10;;;5.80;93.20;13.30;100006.00;;;;4998614;28;20206;-68
2020/12/26 06:34:11;;;;;;;3.80;1.90;;;5.80;93.20;13.50;100013.00;;;;5015324;28;20224;-68
2020/12/26 06:36:39;;;;;;;3.40;1.90;;;5.80;93.30;13.50;100012.00;;;;4982469;28;20608;-68
2020/12/26 06:39:29;;;;;;;4.15;2.20;;;5.80;93.20;13.40;100013.00;;;;4998487;28;20187;-68
2020/12/26 06:42:15;;;;;;;3.53;1.95;;;5.80;93.20;13.30;100017.00;;;;5031287;28;20416;-68
2020/12/26 06:44:42;;;;;;;3.22;1.60;;;5.80;93.20;13.40;100026.00;;;;5014899;28;20187;-68
2020/12/26 06:47:07;;;;;;;3.50;2.20;;;5.80;93.20;13.50;100031.00;;;;5014777;28;20569;-67
2020/12/26 06:49:33;;;;;;;4.20;1.90;;;5.80;93.20;13.50;100030.00;;;;4998578;28;20215;-68
2020/12/26 06:51:59;;;;;;;3.20;1.70;;;5.80;93.20;13.60;100034.00;;;;4998504;28;20428;-67
2020/12/26 06:54:39;;;;;;;3.60;1.70;;;5.80;93.20;13.30;100042.00;;;;4997890;28;20183;-68
2020/12/26 06:57:04;;;;;;;3.70;1.80;;;5.80;93.20;13.40;100046.00;;;;5014808;28;20210;-67
2020/12/26 06:59:35;;;;;;;3.83;1.90;;;5.80;93.20;13.50;100049.00;;;;4997831;28;20541;-67
2020/12/26 07:02:05;;;;;;;3.80;2.30;;;5.80;93.20;13.50;100052.00;;;;5031226;28;20520;-67
2020/12/26 07:04:39;;;;;;;3.33;1.58;;;5.80;93.20;13.40;100054.00;;;;4998711;28;20241;-67
2020/12/26 07:07:09;;;;;;;3.30;1.58;;;5.80;93.20;13.30;100061.00;;;;4997923;28;20674;-67
2020/12/26 07:09:35;;;;;;;4.05;2.30;;;5.80;93.20;13.20;100059.00;;;;4998934;28;20213;-67
2020/12/26 07:12:00;;;;;;;3.83;2.00;;;5.80;93.20;13.40;100077.00;;;;5031314;28;20202;-67
2020/12/26 07:14:32;;;;;;;3.70;1.90;;;5.80;93.20;13.40;100069.00;;;;5030976;28;20258;-67
2020/12/26 07:17:05;;;;;;;3.05;1.40;;;5.80;93.20;13.40;100076.00;;;;5030648;28;20218;-67
2020/12/26 07:19:44;;;;;;;3.35;1.83;;;5.80;93.20;13.40;100090.00;;;;5030916;28;20175;-68
2020/12/26 07:22:20;;;;;;;3.63;1.88;;;5.80;93.10;13.50;100084.00;;;;5014303;28;20202;-67
2020/12/26 07:24:47;;;;;;;3.80;2.15;;;5.80;93.10;13.30;100084.00;;;;5015414;28;20186;-67
2020/12/26 07:27:27;;;;;;;3.30;1.70;;;5.80;93.10;13.40;100082.00;;;;4997348;28;20198;-67
2020/12/26 07:30:19;;;;;;;4.18;1.90;;;5.80;93.20;13.30;100088.00;;;;5031064;28;20857;-67
2020/12/26 07:33:00;;;;;;;3.70;2.00;;;5.80;93.20;13.40;100089.00;;;;5013913;28;20195;-67
2020/12/26 07:35:33;;;;;;;3.10;1.52;;;5.80;93.10;13.40;100089.00;;;;5013850;28;20261;-68
2020/12/26 07:38:07;;;;;;;3.65;2.13;;;5.80;93.10;13.40;100106.00;;;;5031872;28;20264;-67
2020/12/26 07:40:42;;;;;;;3.42;2.03;;;5.80;93.10;13.40;100112.00;;;;5030576;28;20704;-67
2020/12/26 07:43:10;;;;;;;3.45;1.45;;;5.80;93.10;13.50;100114.00;;;;4997984;28;20205;-67
2020/12/26 07:45:38;;;;;;;3.50;2.00;;;5.80;93.10;13.60;100122.00;;;;4997942;28;20194;-68
2020/12/26 07:48:04;;;;;;;5.15;1.90;;;5.80;93.10;13.30;100117.00;;;;4997306;28;20203;-67
2020/12/26 07:50:33;;;;;;;3.50;1.77;;;5.80;93.10;13.50;100132.00;;;;4997181;28;20304;-67
2020/12/26 07:53:05;;;;;;;3.80;1.80;;;5.80;93.10;13.50;100134.00;;;;5030391;28;20344;-67
2020/12/26 07:55:31;;;;;;;3.78;1.50;;;5.80;93.10;13.20;100128.00;;;;4997434;28;20727;-67
2020/12/26 07:58:15;;;;;;;3.53;1.87;;;5.80;93.10;13.30;100121.00;;;;5013349;28;20253;-67
2020/12/26 08:00:43;;;;;;;3.30;1.75;;;5.80;93.10;13.20;100131.00;;;;5029928;28;20186;-67
2020/12/26 08:03:10;;;;;;;3.53;1.70;;;5.80;93.10;13.50;100142.00;;;;5013356;28;20203;-67
2020/12/26 08:05:38;;;;;;;3.70;2.00;;;5.80;93.10;13.40;100140.00;;;;4997490;28;20186;-67
2020/12/26 08:08:16;;;;;;;3.95;2.08;;;5.80;93.10;13.40;100138.00;;;;5013339;28;20207;-67
2020/12/26 08:10:42;;;;;;;3.45;1.80;;;5.70;93.10;13.20;100149.00;;;;5029768;28;20206;-67
2020/12/26 08:13:15;;;;;;;4.15;2.45;;;5.70;93.10;13.30;100149.00;;;;4996433;28;20214;-67
2020/12/26 08:15:41;;;;;;;4.05;1.80;;;5.70;93.10;13.20;100146.00;;;;4981521;28;20880;-67
2020/12/26 08:18:07;;;;;;;4.10;1.90;;;5.70;93.10;13.40;100149.00;;;;4996397;28;20293;-67
2020/12/26 08:20:35;;;;;;;4.40;2.07;;;5.70;93.10;13.20;100144.00;;;;5013695;28;20194;-68
2020/12/26 08:23:01;;;;;;;3.75;2.00;;;5.70;93.10;13.40;100146.00;;;;5013233;28;20195;-67
2020/12/26 08:25:28;;;;;;;4.70;2.30;;;5.70;93.10;13.40;100155.00;;;;5029469;28;20171;-67
2020/12/26 08:27:54;;;;;;;3.45;1.75;;;5.70;93.10;13.40;100159.00;;;;4996987;28;20207;-67
2020/12/26 08:30:26;;;;;;;3.97;1.77;;;5.70;93.10;13.40;100165.00;;;;4996980;28;20256;-67
2020/12/26 08:33:29;;;;;;;3.50;1.70;;;5.70;93.10;13.30;100163.00;;;;5013085;28;20462;-67
2020/12/26 08:36:39;;;;;;;4.45;2.10;;;5.70;93.00;13.10;100161.00;;;;4996624;28;20230;-67
2020/12/26 08:39:07;;;;;;;3.70;1.73;;;5.70;93.00;13.30;100171.00;;;;4995034;28;20202;-67
2020/12/26 08:41:33;;;;;;;4.05;2.20;;;5.70;93.10;13.30;100167.00;;;;4997085;28;20301;-67
2020/12/26 08:43:59;;;;;;;4.13;2.27;;;5.70;93.00;13.30;100164.00;;;;5012378;28;20261;-67
2020/12/26 08:46:28;;;;;;;3.87;2.17;;;5.70;93.00;13.30;100177.00;;;;5012274;28;20441;-67
2020/12/26 08:48:55;;;;;;;4.70;2.05;;;5.70;93.00;13.40;100180.00;;;;5029597;28;20210;-67
2020/12/26 08:51:22;;;;;;;3.55;1.90;;;5.80;93.00;13.40;100183.00;;;;5012269;28;20190;-67
2020/12/26 08:53:49;;;;;;;3.60;1.70;;;5.70;93.00;13.40;100175.00;;;;5012700;28;20182;-68
2020/12/26 08:56:15;;;;;;;4.20;1.63;;;5.70;93.00;13.30;100180.00;;;;4996304;28;20178;-67
2020/12/26 08:58:48;;;;;;;4.10;2.10;;;5.70;92.90;13.30;100177.00;;;;5012128;28;20185;-67
2020/12/26 09:01:14;;;;;;;4.15;1.60;;;5.70;92.90;13.20;100172.00;;;;5012874;28;20914;-67
2020/12/26 09:03:46;;;;;;;3.67;1.90;;;5.70;92.90;13.20;100163.00;;;;5011990;28;20202;-67
2020/12/26 09:06:12;;;;;;;3.63;1.70;;;5.70;93.00;13.40;100178.00;;;;4996829;28;20219;-67
2020/12/26 09:08:38;;;;;;;3.83;1.97;;;5.70;92.90;13.10;100178.00;;;;5029688;28;20503;-67
2020/12/26 09:11:06;;;;;;;3.97;1.70;;;5.70;92.90;13.20;100185.00;;;;5012693;28;20182;-67
2020/12/26 09:13:33;;;;;;;3.78;1.90;;;5.70;92.90;13.20;100189.00;;;;4995228;28;20289;-67
2020/12/26 09:16:11;;;;;;;3.70;2.00;;;5.70;92.90;13.10;100188.00;;;;5029097;28;20201;-67
2020/12/26 09:18:39;;;;;;;3.67;1.95;;;5.70;92.90;13.20;100180.00;;;;4996640;28;20564;-67
2020/12/26 09:21:05;;;;;;;4.03;1.70;;;5.70;92.90;13.30;100178.00;;;;5030124;28;20183;-67
2020/12/26 09:23:38;;;;;;;3.20;1.73;;;5.70;92.90;13.20;100184.00;;;;5028799;28;20597;-67
2020/12/26 09:26:27;;;;;;;4.18;1.98;;;5.70;92.90;13.30;100197.00;;;;5012749;28;20412;-67
2020/12/26 09:29:01;;;;;;;4.28;2.05;;;5.70;92.90;13.20;100190.00;;;;5012362;28;20198;-67
2020/12/26 09:31:45;;;;;;;5.78;2.20;;;5.70;92.90;13.20;100184.00;;;;5013058;28;20183;-67
2020/12/26 09:34:22;;;;;;;4.53;1.98;;;5.70;92.90;13.30;100200.00;;;;5028143;28;20198;-67
2020/12/26 09:36:48;;;;;;;3.50;1.92;;;5.70;92.90;13.30;100196.00;;;;5013571;28;20693;-68
2020/12/26 09:39:14;;;;;;;3.92;2.20;;;5.70;92.90;13.20;100194.00;;;;4979126;28;20557;-67
2020/12/26 09:41:48;;;;;;;4.30;2.20;;;5.70;92.90;13.30;100190.00;;;;5027595;28;20191;-67
2020/12/26 09:44:14;;;;;;;5.00;2.67;;;5.70;93.00;13.20;100193.00;;;;4995908;28;20926;-67
2020/12/26 09:46:40;;;;;;;4.03;2.58;;;5.70;92.90;13.40;100178.00;;;;5048075;28;20198;-67
2020/12/26 09:49:07;;;;;;;3.53;1.80;;;5.70;92.90;13.30;100182.00;;;;5046211;28;20213;-67
2020/12/26 09:51:32;;;;;;;3.63;1.75;;;5.70;92.90;13.40;100197.00;;;;5048166;28;20255;-67
2020/12/26 09:53:58;;;;;;;4.30;2.70;;;5.70;92.90;13.30;100172.00;;;;5031452;28;20178;-68
2020/12/26 09:56:24;;;;;;;4.53;2.30;;;5.70;92.90;13.40;100175.00;;;;5051425;28;20217;-67
2020/12/26 09:58:50;;;;;;;3.37;1.77;;;5.70;92.90;13.30;100177.00;;;;5019000;28;20182;-67
2020/12/26 10:01:21;;;;;;;4.00;2.20;;;5.70;92.90;13.40;100186.00;;;;5053452;28;20668;-67
2020/12/26 10:03:48;;;;;;;4.05;2.25;;;5.70;92.90;13.40;100164.00;;;;5052758;28;20182;-67
2020/12/26 10:06:19;;;;;;;3.75;1.90;;;5.70;92.90;13.30;100177.00;;;;5035948;28;20320;-67
2020/12/26 10:08:45;;;;;;;3.55;2.05;;;5.70;92.90;13.20;100173.00;;;;5035358;28;20200;-67
2020/12/26 10:11:16;;;;;;;4.43;2.05;;;5.70;92.90;13.40;100176.00;;;;5052017;28;20192;-66
2020/12/26 10:13:42;;;;;;;4.43;2.00;;;5.70;92.90;13.10;100182.00;;;;5035214;28;20281;-67
2020/12/26 10:16:08;;;;;;;3.70;2.27;;;5.70;92.90;13.30;100195.00;;;;5035314;28;20276;-67
2020/12/26 10:18:34;;;;;;;4.10;2.10;;;5.70;92.90;13.20;100188.00;;;;5034592;28;20406;-66
2020/12/26 10:21:00;;;;;;;3.78;1.60;;;5.70;92.90;13.30;100193.00;;;;5029097;28;20197;-67
2020/12/26 10:23:27;;;;;;;4.10;2.10;;;5.70;92.90;13.00;100189.00;;;;5032949;28;20210;-67
2020/12/26 10:25:52;;;;;;;5.03;2.40;;;5.70;92.90;13.20;100175.00;;;;5013192;28;20171;-67
2020/12/26 10:28:18;;;;;;;3.77;2.00;;;5.70;92.90;13.10;100181.00;;;;5007113;28;20781;-67
2020/12/26 10:30:46;;;;;;;3.20;1.63;;;5.70;92.90;13.20;100196.00;;;;5030544;28;20206;-67
2020/12/26 10:33:12;;;;;;;4.65;2.20;;;5.70;92.90;13.20;100191.00;;;;5013460;28;20213;-67
2020/12/26 10:35:37;;;;;;;4.00;2.53;;;5.70;92.90;13.10;100196.00;;;;5013398;28;20191;-67
2020/12/26 10:38:03;;;;;;;4.33;2.20;;;5.70;92.90;13.10;100194.00;;;;5013101;28;20206;-67
2020/12/26 10:40:29;;;;;;;3.70;1.90;;;5.70;92.90;13.20;100206.00;;;;5025098;28;20183;-67
2020/12/26 10:42:54;;;;;;;5.07;2.50;;;5.70;92.90;13.10;100198.00;;;;5031304;28;20201;-67
2020/12/26 10:45:20;;;;;;;3.70;2.30;;;5.70;92.90;13.00;100202.00;;;;5031482;28;20258;-67
2020/12/26 10:47:46;;;;;;;3.80;2.20;;;5.70;92.90;12.90;100207.00;;;;5030457;28;20205;-67
2020/12/26 10:50:11;;;;;;;3.83;2.10;;;5.70;92.90;13.10;100199.00;;;;5030753;28;20329;-67
2020/12/26 10:52:37;;;;;;;4.63;2.77;;;5.70;92.90;13.30;100196.00;;;;5030718;28;20543;-67
2020/12/26 10:55:03;;;;;;;3.60;2.17;;;5.70;92.90;13.30;100195.00;;;;5032013;28;20259;-66
2020/12/26 10:57:29;;;;;;;3.90;2.20;;;5.70;92.90;13.30;100182.00;;;;5030226;28;20234;-67
2020/12/26 10:59:54;;;;;;;4.83;2.90;;;5.70;92.90;13.40;100171.00;;;;4980431;28;20648;-67
2020/12/26 11:02:20;;;;;;;3.63;1.93;;;5.70;92.80;13.30;100181.00;;;;5030942;28;20206;-67
2020/12/26 11:04:51;;;;;;;3.87;2.50;;;5.80;92.90;13.30;100171.00;;;;5030163;28;20183;-67